Marathon, Florida
Current Conditions -  °F | °C
As of 9:53 PM on Monday 26 Jan 2015 (Local Time) from KMTH Reporting Station
Broken Clouds Broken Clouds  
Wind Chill: 68°   Ceiling: 4100
Heat Index: 68°   Visibility: 10mi
Dew Point: 55°   Wind: 10mph
Humidity: 63%   Direction: 280°W
Pressure: 30"   Gusts: 21mph
Location:  24.73°N, 81.04°W
Report Text: KMTH 270253Z AUTO 28009G18KT 10SM BKN041 BKN049 20/13 A3000 RMK AO2 SLP158 T02000128 51010
Loading
Personal Weather Stations






























Interactive Weather Map New forecast layout! Learn more

10-Day Weather Forecast

Advertisements
Track Severe Weather on mobile